This is the latest recevied weather packets stored in our database for station/object K8DJB-1. If no packets are shown the sender has not sent any weather packets the latest 10 day(s).
| Time | Temp. | Humidity | Pressure | Rain* | Wind** | Luminosity | Snow |
|---|---|---|---|---|---|---|---|
| 1777573547 | 10° C | 50% | 1015.1 hPa | 0 mm | - | - | - |
| 1777573246 | 10° C | 54% | 1015 hPa | 0 mm | - | - | - |
| 1777572646 | 10° C | 51% | 1015 hPa | 0 mm | - | - | - |
| 1777572347 | 10° C | 48% | 1015.1 hPa | 0 mm | - | - | - |
| 1777572047 | 10° C | 52% | 1015 hPa | 0 mm | - | - | - |
| 1777571747 | 9.44° C | 49% | 1015.2 hPa | 0 mm | - | - | - |
| 1777571446 | 9.44° C | 55% | 1015.2 hPa | 0 mm | - | - | - |
| 1777570849 | 9.44° C | 55% | 1015.1 hPa | 0 mm | - | - | - |
| 1777570438 | 9.44° C | 51% | 1015.2 hPa | 0 mm | - | - | - |
| 1777570140 | 9.44° C | 57% | 1015.1 hPa | 0 mm | - | - | - |
| 1777569838 | 9.44° C | 52% | 1015.3 hPa | 0 mm | - | - | - |
| 1777569538 | 9.44° C | 56% | 1015.3 hPa | 0 mm | - | - | - |
| 1777569238 | 9.44° C | 52% | 1015.3 hPa | 0 mm | - | - | - |
| 1777568938 | 9.44° C | 54% | 1015.2 hPa | 0 mm | - | - | - |
| 1777568638 | 9.44° C | 54% | 1015.2 hPa | 0 mm | - | - | - |
| 1777568338 | 8.89° C | 53% | 1015.2 hPa | 0 mm | - | - | - |
| 1777568038 | 9.44° C | 57% | 1015.2 hPa | 0 mm | - | - | - |
| 1777567738 | 9.44° C | 55% | 1015.3 hPa | 0 mm | - | - | - |
| 1777567438 | 9.44° C | 59% | 1015.2 hPa | 0 mm | - | - | - |
| 1777567138 | 8.89° C | 54% | 1015.2 hPa | 0 mm | - | - | - |
| 1777566838 | 8.89° C | 58% | 1015.3 hPa | 0 mm | - | - | - |
| 1777566538 | 8.89° C | 52% | 1015.3 hPa | 0 mm | - | - | - |
| 1777566239 | 8.89° C | 57% | 1015.3 hPa | 0 mm | - | - | - |
| 1777565938 | 8.89° C | 56% | 1015.4 hPa | 0 mm | - | - | - |
| 1777565638 | 8.89° C | 55% | 1015.3 hPa | 0 mm | - | - | - |
* Rain latest hour (hover to see other rain measurements)
** Current wind speed in m/s (hover to see current wind gust speed)